createdAt,value
2018-07-21T00:00:37.227Z,44.16
2018-07-21T00:03:06.995Z,45.21
2018-07-21T00:05:36.269Z,42.69
2018-07-21T00:08:05.770Z,43.43
2018-07-21T00:10:35.105Z,43.04
2018-07-21T00:13:04.511Z,43.64
2018-07-21T00:15:33.866Z,42.93
2018-07-21T00:18:03.210Z,44.18
2018-07-21T00:20:32.562Z,44.37
2018-07-21T00:23:01.864Z,44.59
2018-07-21T00:25:31.643Z,44.14
2018-07-21T00:28:00.975Z,44.19
2018-07-21T00:30:30.291Z,44.26
2018-07-21T00:32:59.695Z,43.26
2018-07-21T00:35:28.997Z,43.54
2018-07-21T00:37:58.382Z,43.21
2018-07-21T00:40:27.694Z,44.04
2018-07-21T00:42:57.095Z,44.04
2018-07-21T00:45:26.398Z,44.22
2018-07-21T00:47:56.042Z,43.95
2018-07-21T00:50:25.354Z,44.19
2018-07-21T00:52:54.671Z,45.18
2018-07-21T00:55:23.994Z,45.14
2018-07-21T00:57:53.314Z,45.15
2018-07-21T01:00:22.980Z,43.60
2018-07-21T01:02:52.336Z,44.53
2018-07-21T01:05:21.638Z,43.94
2018-07-21T01:07:50.966Z,44.24
2018-07-21T01:10:20.609Z,43.69
2018-07-21T01:12:49.891Z,43.23
2018-07-21T01:15:19.195Z,42.82
2018-07-21T01:17:48.763Z,42.78
2018-07-21T01:20:18.104Z,43.48
2018-07-21T01:22:47.418Z,42.90
2018-07-21T01:25:16.522Z,45.83
2018-07-21T01:27:45.796Z,45.90
2018-07-21T01:30:15.110Z,45.56
2018-07-21T01:32:44.290Z,45.67
2018-07-21T01:35:13.560Z,45.54
2018-07-21T01:37:42.810Z,45.22
2018-07-21T01:40:12.114Z,44.24
2018-07-21T01:42:41.389Z,45.99
2018-07-21T01:45:10.736Z,47.65
2018-07-21T01:47:40.048Z,48.06
2018-07-21T01:50:09.328Z,47.11
2018-07-21T01:52:38.645Z,47.45
2018-07-21T01:55:08.392Z,47.53
2018-07-21T01:57:37.702Z,48.30
2018-07-21T02:00:07.030Z,47.48
2018-07-21T02:02:36.352Z,48.06
2018-07-21T02:05:07.012Z,48.07
2018-07-21T02:07:36.361Z,47.31
2018-07-21T02:10:05.651Z,47.25
2018-07-21T02:12:35.007Z,47.66
2018-07-21T02:15:04.272Z,47.71
2018-07-21T02:17:33.919Z,47.73
2018-07-21T02:20:03.196Z,47.55
2018-07-21T02:22:32.571Z,48.76
2018-07-21T02:25:01.861Z,48.50
2018-07-21T02:27:31.638Z,48.63
2018-07-21T02:30:00.953Z,48.92
2018-07-21T02:32:30.403Z,49.63
2018-07-21T02:34:59.715Z,49.27
2018-07-21T02:37:28.993Z,48.98
2018-07-21T02:39:58.471Z,48.29
2018-07-21T02:42:27.813Z,48.37
2018-07-21T02:44:57.083Z,48.17
2018-07-21T02:47:26.451Z,48.11
2018-07-21T02:49:55.780Z,48.30
2018-07-21T02:52:25.111Z,48.35
2018-07-21T02:54:54.460Z,48.35
2018-07-21T02:57:23.802Z,48.94
2018-07-21T02:59:53.102Z,49.80
2018-07-21T03:02:22.498Z,49.96
2018-07-21T03:04:51.769Z,49.97
2018-07-21T03:07:21.094Z,49.90
2018-07-21T03:09:50.515Z,50.59
2018-07-21T03:12:19.864Z,50.86
2018-07-21T03:14:49.194Z,50.24
2018-07-21T03:17:18.523Z,50.00
2018-07-21T03:19:47.871Z,50.63
2018-07-21T03:22:17.173Z,50.18
2018-07-21T03:24:46.621Z,49.37
2018-07-21T03:27:15.894Z,49.59
2018-07-21T03:29:45.217Z,49.41
2018-07-21T03:32:14.495Z,49.04
2018-07-21T03:34:43.795Z,49.07
2018-07-21T03:37:13.159Z,49.09
2018-07-21T03:39:42.507Z,49.57
2018-07-21T03:42:12.233Z,49.11
2018-07-21T03:44:41.511Z,49.24
2018-07-21T03:47:11.188Z,48.20
2018-07-21T03:49:40.643Z,48.20
2018-07-21T03:52:09.930Z,48.73
2018-07-21T03:54:39.279Z,49.50
2018-07-21T03:57:08.620Z,49.19
2018-07-21T03:59:37.939Z,48.91
2018-07-21T04:02:07.263Z,49.39
2018-07-21T04:04:36.566Z,49.46
2018-07-21T04:07:06.076Z,49.08
2018-07-21T04:09:35.997Z,49.01
2018-07-21T04:12:05.383Z,48.67
2018-07-21T04:14:34.655Z,48.88
2018-07-21T04:17:04.074Z,49.49
2018-07-21T04:19:33.388Z,49.14
2018-07-21T04:22:02.731Z,48.56
2018-07-21T04:24:32.106Z,48.11
2018-07-21T04:27:01.401Z,47.80
2018-07-21T04:29:30.854Z,47.11
2018-07-21T04:32:00.560Z,47.33
2018-07-21T04:34:29.905Z,47.34
2018-07-21T04:36:59.268Z,47.33
2018-07-21T04:39:28.688Z,47.04
2018-07-21T04:41:58.006Z,46.81
2018-07-21T04:44:27.342Z,47.97
2018-07-21T04:46:56.693Z,46.95
2018-07-21T04:49:26.126Z,46.84
2018-07-21T04:51:55.431Z,46.60
2018-07-21T04:54:25.310Z,45.99
2018-07-21T04:56:54.636Z,46.01
2018-07-21T04:59:23.943Z,45.96
2018-07-21T05:01:53.319Z,45.63
2018-07-21T05:04:22.653Z,45.82
2018-07-21T05:06:52.042Z,45.95
2018-07-21T05:09:21.391Z,44.46
2018-07-21T05:11:50.439Z,43.50
2018-07-21T05:14:19.725Z,43.66
2018-07-21T05:16:49.599Z,43.77
2018-07-21T05:19:18.950Z,43.94
2018-07-21T05:21:48.302Z,43.27
2018-07-21T05:24:17.710Z,43.63
2018-07-21T05:26:47.045Z,44.25
2018-07-21T05:29:16.386Z,44.04
2018-07-21T05:31:45.750Z,43.29
2018-07-21T05:34:15.052Z,43.45
2018-07-21T05:36:44.383Z,42.60
2018-07-21T05:39:14.192Z,43.37
2018-07-21T05:41:43.424Z,42.86
2018-07-21T05:44:12.722Z,43.07
2018-07-21T05:46:42.064Z,43.00
2018-07-21T05:49:11.357Z,42.09
2018-07-21T05:51:40.667Z,41.88
2018-07-21T05:54:10.002Z,41.93
2018-07-21T05:56:39.301Z,41.28
2018-07-21T05:59:08.631Z,41.46
2018-07-21T06:01:38.151Z,42.38
2018-07-21T06:04:07.512Z,41.13
2018-07-21T06:06:36.827Z,40.93
2018-07-21T06:09:09.165Z,40.85
2018-07-21T06:11:38.578Z,40.75
2018-07-21T06:14:07.939Z,41.18
2018-07-21T06:16:37.029Z,41.77
2018-07-21T06:19:06.290Z,40.70
2018-07-21T06:21:35.611Z,39.64
2018-07-21T06:24:05.328Z,40.11
2018-07-21T06:26:34.617Z,38.71
2018-07-21T06:29:03.895Z,37.98
2018-07-21T06:31:33.198Z,38.52
2018-07-21T06:34:02.634Z,38.07
2018-07-21T06:36:31.919Z,38.48
2018-07-21T06:39:01.215Z,38.27
2018-07-21T06:41:30.515Z,38.63
2018-07-21T06:44:00.033Z,37.60
2018-07-21T06:46:29.520Z,37.05
2018-07-21T06:48:58.913Z,37.92
2018-07-21T06:51:28.214Z,38.63
2018-07-21T06:53:57.526Z,38.21
2018-07-21T06:56:26.844Z,37.04
2018-07-21T06:58:56.172Z,38.01
2018-07-21T07:01:25.489Z,39.17
2018-07-21T07:03:54.823Z,39.61
2018-07-21T07:06:24.201Z,39.67
2018-07-21T07:08:54.010Z,38.95
2018-07-21T07:11:23.351Z,38.46
2018-07-21T07:13:52.631Z,37.44
2018-07-21T07:16:21.988Z,36.88
2018-07-21T07:18:51.268Z,37.39
2018-07-21T07:21:20.612Z,36.34
2018-07-21T07:23:49.953Z,35.83
2018-07-21T07:26:19.422Z,35.86
2018-07-21T07:28:48.988Z,36.60
2018-07-21T07:31:18.843Z,36.90
2018-07-21T07:33:48.202Z,36.23
2018-07-21T07:36:17.459Z,35.94
2018-07-21T07:38:46.744Z,34.49
2018-07-21T07:41:16.038Z,34.47
2018-07-21T07:43:45.374Z,33.28
2018-07-21T07:46:14.705Z,34.22
2018-07-21T07:48:44.039Z,33.91
2018-07-21T07:51:13.338Z,33.90
2018-07-21T07:53:42.517Z,32.78
2018-07-21T07:56:11.807Z,33.08
2018-07-21T07:58:41.077Z,33.69
2018-07-21T08:01:10.447Z,34.40
2018-07-21T08:03:39.712Z,35.14
2018-07-21T08:06:09.077Z,34.29
2018-07-21T08:08:38.405Z,33.82
2018-07-21T08:11:07.688Z,33.93
2018-07-21T08:13:37.145Z,33.27
2018-07-21T08:16:06.565Z,33.52
2018-07-21T08:18:35.881Z,33.98
2018-07-21T08:21:05.190Z,32.38
2018-07-21T08:23:34.751Z,32.51
2018-07-21T08:26:04.087Z,33.89
2018-07-21T08:28:33.361Z,33.60
2018-07-21T08:31:02.760Z,32.64
2018-07-21T08:33:32.056Z,32.58
2018-07-21T08:36:01.390Z,31.21
2018-07-21T08:38:30.895Z,30.18
2018-07-21T08:41:00.196Z,31.29
2018-07-21T08:43:29.476Z,30.57
2018-07-21T08:45:58.823Z,29.70
2018-07-21T08:48:28.155Z,30.45
2018-07-21T08:50:57.499Z,31.65
2018-07-21T08:53:26.816Z,31.46
2018-07-21T08:55:56.175Z,31.74
2018-07-21T08:58:25.502Z,31.50
2018-07-21T09:00:54.964Z,31.71
2018-07-21T09:03:24.537Z,31.42
2018-07-21T09:05:53.938Z,32.48
2018-07-21T09:08:23.319Z,31.59
2018-07-21T09:10:52.610Z,31.42
2018-07-21T09:13:21.955Z,30.60
2018-07-21T09:15:51.435Z,29.88
2018-07-21T09:18:20.720Z,30.74
2018-07-21T09:20:50.032Z,30.64
2018-07-21T09:23:19.523Z,29.26
2018-07-21T09:25:48.818Z,27.71
2018-07-21T09:28:18.117Z,28.51
2018-07-21T09:30:47.425Z,28.39
2018-07-21T09:33:16.746Z,28.24
2018-07-21T09:35:46.430Z,27.60
2018-07-21T09:38:15.747Z,27.99
2018-07-21T09:40:45.024Z,27.41
2018-07-21T09:43:14.256Z,26.75
2018-07-21T09:45:44.166Z,27.09
2018-07-21T09:48:13.544Z,25.03
2018-07-21T09:50:45.955Z,24.03
2018-07-21T09:53:15.036Z,24.19
2018-07-21T09:55:44.436Z,23.53
2018-07-21T09:58:13.719Z,24.16
2018-07-21T10:00:48.382Z,24.63
2018-07-21T10:03:17.716Z,24.00
2018-07-21T10:05:47.101Z,25.07
2018-07-21T10:08:16.409Z,25.89
2018-07-21T10:10:45.838Z,25.41
2018-07-21T10:13:15.147Z,25.35
2018-07-21T10:15:44.605Z,25.80
2018-07-21T10:18:13.958Z,26.02
2018-07-21T10:20:43.367Z,26.88
2018-07-21T10:23:12.949Z,26.59
2018-07-21T10:25:47.495Z,26.51
2018-07-21T10:28:22.270Z,28.27
2018-07-21T10:30:51.538Z,28.72
2018-07-21T10:33:21.039Z,27.83
2018-07-21T10:35:50.198Z,28.13
2018-07-21T10:38:19.532Z,28.56
2018-07-21T10:40:49.078Z,27.96
2018-07-21T10:43:18.685Z,28.67
2018-07-21T10:45:47.946Z,27.03
2018-07-21T10:48:17.323Z,28.27
2018-07-21T10:50:46.743Z,27.53
2018-07-21T10:53:16.047Z,28.07
2018-07-21T10:55:45.357Z,28.07
2018-07-21T10:58:14.659Z,28.81
2018-07-21T11:00:44.049Z,28.00
2018-07-21T11:03:13.399Z,28.38
2018-07-21T11:05:42.846Z,27.62
2018-07-21T11:08:12.723Z,28.12
2018-07-21T11:10:42.193Z,27.06
2018-07-21T11:13:11.530Z,28.13
2018-07-21T11:15:40.657Z,27.20
2018-07-21T11:18:10.014Z,26.21
2018-07-21T11:20:39.378Z,25.46
2018-07-21T11:23:09.073Z,24.71
2018-07-21T11:25:38.865Z,26.53
2018-07-21T11:28:08.571Z,26.36
2018-07-21T11:30:37.626Z,25.45
2018-07-21T11:33:07.043Z,24.57
2018-07-21T11:35:36.542Z,24.87
2018-07-21T11:38:05.982Z,24.92
2018-07-21T11:40:35.027Z,26.05
2018-07-21T11:43:04.351Z,25.31
2018-07-21T11:45:33.790Z,24.30
2018-07-21T11:48:03.142Z,23.27
2018-07-21T11:50:32.762Z,23.43
2018-07-21T11:53:02.047Z,25.08
2018-07-21T11:55:32.275Z,24.14
2018-07-21T11:58:01.643Z,24.71
2018-07-21T12:00:31.080Z,25.03
2018-07-21T12:03:00.403Z,25.04
2018-07-21T12:05:29.748Z,25.15
2018-07-21T12:07:59.060Z,24.52
2018-07-21T12:10:28.361Z,23.89
2018-07-21T12:12:57.961Z,23.53
2018-07-21T12:15:27.313Z,25.03
2018-07-21T12:17:56.701Z,25.52
2018-07-21T12:20:26.177Z,25.50
2018-07-21T12:22:55.407Z,25.57
2018-07-21T12:25:24.920Z,25.06
2018-07-21T12:27:55.056Z,23.56
2018-07-21T12:30:24.489Z,24.25
2018-07-21T12:32:54.233Z,23.31
2018-07-21T12:35:23.729Z,23.01
2018-07-21T12:37:53.128Z,23.54
2018-07-21T12:40:22.537Z,24.33
2018-07-21T12:42:51.875Z,24.88
2018-07-21T12:45:21.183Z,25.76
2018-07-21T12:47:50.511Z,24.85
2018-07-21T12:50:19.840Z,23.89
2018-07-21T12:52:49.170Z,24.44
2018-07-21T12:55:18.474Z,24.92
2018-07-21T12:57:48.417Z,23.58
2018-07-21T13:00:17.786Z,25.28
2018-07-21T13:02:47.078Z,23.80
2018-07-21T13:05:18.147Z,25.17
2018-07-21T13:07:47.468Z,25.26
2018-07-21T13:10:16.738Z,24.91
2018-07-21T13:12:46.023Z,25.02
2018-07-21T13:15:15.643Z,25.07
2018-07-21T13:17:44.946Z,25.47
2018-07-21T13:20:14.631Z,24.74
2018-07-21T13:22:43.991Z,25.19
2018-07-21T13:25:13.332Z,25.76
2018-07-21T13:27:42.651Z,25.86
2018-07-21T13:30:11.991Z,25.36
2018-07-21T13:32:41.270Z,25.19
2018-07-21T13:35:11.067Z,24.60
2018-07-21T13:37:40.472Z,25.86
2018-07-21T13:40:10.547Z,25.40
2018-07-21T13:42:40.364Z,25.71
2018-07-21T13:45:09.742Z,26.06
2018-07-21T13:47:39.072Z,26.66
2018-07-21T13:50:08.590Z,26.79
2018-07-21T13:52:37.911Z,25.95
2018-07-21T13:55:07.606Z,25.54
2018-07-21T13:57:36.973Z,25.37
2018-07-21T14:00:07.000Z,26.12
2018-07-21T14:02:36.312Z,26.03
2018-07-21T14:05:05.754Z,26.14
2018-07-21T14:07:35.138Z,27.05
2018-07-21T14:10:04.581Z,27.09
2018-07-21T14:12:33.920Z,27.39
2018-07-21T14:15:03.175Z,28.04
2018-07-21T14:17:32.543Z,27.50
2018-07-21T14:20:03.108Z,26.97
2018-07-21T14:22:32.407Z,28.01
2018-07-21T14:25:01.761Z,28.12
2018-07-21T14:27:31.547Z,27.40
2018-07-21T14:30:00.977Z,27.57
2018-07-21T14:32:30.150Z,27.80
2018-07-21T14:34:59.756Z,28.51
2018-07-21T14:37:29.069Z,28.36
2018-07-21T14:39:58.401Z,28.89
2018-07-21T14:42:27.726Z,29.00
2018-07-21T14:44:57.068Z,28.77
2018-07-21T14:47:26.404Z,28.96
2018-07-21T14:49:56.204Z,28.78
2018-07-21T14:52:25.505Z,28.44
2018-07-21T14:54:54.921Z,28.42
2018-07-21T14:57:24.196Z,28.60
2018-07-21T14:59:53.502Z,28.11
2018-07-21T15:02:22.776Z,28.50
2018-07-21T15:04:52.144Z,28.54
2018-07-21T15:07:21.419Z,28.73
2018-07-21T15:09:50.779Z,28.16
2018-07-21T15:12:20.620Z,29.01
2018-07-21T15:14:49.968Z,29.39
2018-07-21T15:17:19.258Z,29.05
2018-07-21T15:19:48.589Z,28.96
2018-07-21T15:22:17.918Z,29.41
2018-07-21T15:24:47.251Z,29.79
2018-07-21T15:27:16.588Z,30.48
2018-07-21T15:29:45.876Z,30.01
2018-07-21T15:32:15.167Z,29.27
2018-07-21T15:34:44.843Z,29.76
2018-07-21T15:37:14.207Z,30.24
2018-07-21T15:39:43.517Z,29.74
2018-07-21T15:42:12.848Z,30.89
2018-07-21T15:44:41.891Z,30.35
2018-07-21T15:47:11.199Z,30.18
2018-07-21T15:49:40.562Z,31.14
2018-07-21T15:52:09.966Z,31.12
2018-07-21T15:54:39.312Z,30.91
2018-07-21T15:57:09.156Z,31.14
2018-07-21T15:59:38.558Z,30.37
2018-07-21T16:02:08.000Z,31.34
2018-07-21T16:04:37.327Z,31.03
2018-07-21T16:07:06.692Z,30.36
2018-07-21T16:09:36.104Z,31.55
2018-07-21T16:12:05.441Z,31.42
2018-07-21T16:14:34.848Z,31.58
2018-07-21T16:17:04.190Z,31.23
2018-07-21T16:19:33.716Z,31.37
2018-07-21T16:22:06.472Z,30.68
2018-07-21T16:24:36.745Z,31.08
2018-07-21T16:27:06.142Z,31.10
2018-07-21T16:29:35.508Z,30.77
2018-07-21T16:32:04.803Z,30.72
2018-07-21T16:34:34.208Z,30.77
2018-07-21T16:37:03.493Z,31.29
2018-07-21T16:39:33.408Z,31.58
2018-07-21T16:42:02.752Z,31.90
2018-07-21T16:44:32.122Z,31.71
2018-07-21T16:47:01.478Z,31.55
2018-07-21T16:49:30.798Z,31.44
2018-07-21T16:52:00.133Z,30.58
2018-07-21T16:54:29.574Z,30.18
2018-07-21T16:56:58.880Z,30.79
2018-07-21T16:59:28.254Z,31.04
2018-07-21T17:01:58.040Z,31.46
2018-07-21T17:04:27.403Z,31.43
2018-07-21T17:06:56.742Z,30.76
2018-07-21T17:09:26.282Z,30.59
2018-07-21T17:11:55.588Z,31.05
2018-07-21T17:14:24.973Z,31.32
2018-07-21T17:16:54.278Z,31.38
2018-07-21T17:19:23.586Z,31.03
2018-07-21T17:21:52.653Z,31.59
2018-07-21T17:24:22.380Z,31.50
2018-07-21T17:26:51.674Z,31.33
2018-07-21T17:29:21.136Z,30.93
2018-07-21T17:31:50.495Z,32.05
2018-07-21T17:34:19.795Z,31.12
2018-07-21T17:36:49.143Z,31.72
2018-07-21T17:39:18.570Z,32.49
2018-07-21T17:41:47.910Z,31.58
2018-07-21T17:44:17.297Z,31.21
2018-07-21T17:46:46.700Z,32.32
2018-07-21T17:49:16.053Z,32.67
2018-07-21T17:51:45.391Z,32.40
2018-07-21T17:54:14.777Z,32.57
2018-07-21T17:56:44.111Z,32.01
2018-07-21T17:59:13.396Z,32.21
2018-07-21T18:01:42.835Z,32.71
2018-07-21T18:04:12.170Z,31.53
2018-07-21T18:06:41.545Z,32.80
2018-07-21T18:09:12.125Z,32.39
2018-07-21T18:11:41.542Z,32.33
2018-07-21T18:14:11.022Z,33.51
2018-07-21T18:16:40.347Z,33.20
2018-07-21T18:19:09.666Z,32.30
2018-07-21T18:21:39.025Z,32.31
2018-07-21T18:24:08.519Z,32.73
2018-07-21T18:26:37.875Z,32.67
2018-07-21T18:29:07.819Z,32.94
2018-07-21T18:31:37.421Z,32.76
2018-07-21T18:34:07.193Z,32.85
2018-07-21T18:36:36.456Z,33.26
2018-07-21T18:39:09.592Z,33.48
2018-07-21T18:41:38.958Z,33.03
2018-07-21T18:44:08.758Z,33.75
2018-07-21T18:46:38.659Z,33.96
2018-07-21T18:49:07.935Z,32.98
2018-07-21T18:51:37.221Z,33.19
2018-07-21T18:54:06.638Z,33.12
2018-07-21T18:56:35.967Z,33.42
2018-07-21T18:59:05.319Z,34.48
2018-07-21T19:01:34.635Z,34.65
2018-07-21T19:04:03.984Z,34.59
2018-07-21T19:06:33.370Z,34.02
2018-07-21T19:09:05.703Z,35.27
2018-07-21T19:11:35.011Z,34.76
2018-07-21T19:14:04.292Z,35.52
2018-07-21T19:16:39.998Z,35.87
2018-07-21T19:19:09.481Z,34.89
2018-07-21T19:21:38.762Z,36.08
2018-07-21T19:24:08.584Z,35.90
2018-07-21T19:26:43.046Z,36.17
2018-07-21T19:29:13.013Z,36.47
2018-07-21T19:31:46.493Z,37.04
2018-07-21T19:34:15.816Z,36.27
2018-07-21T19:36:45.104Z,36.60
2018-07-21T19:39:14.405Z,36.82
2018-07-21T19:41:49.288Z,37.86
2018-07-21T19:44:18.555Z,37.37
2018-07-21T19:46:47.915Z,38.13
2018-07-21T19:49:17.345Z,38.13
2018-07-21T19:51:46.804Z,37.34
2018-07-21T19:54:16.167Z,38.52
2018-07-21T19:56:45.591Z,38.52
2018-07-21T19:59:14.898Z,38.69
2018-07-21T20:01:44.193Z,38.25
2018-07-21T20:04:13.647Z,37.92
2018-07-21T20:06:42.945Z,38.23
2018-07-21T20:09:12.224Z,39.01
2018-07-21T20:11:42.523Z,38.16
2018-07-21T20:14:11.829Z,38.54
2018-07-21T20:16:41.135Z,39.63
2018-07-21T20:19:10.532Z,39.28
2018-07-21T20:21:39.810Z,39.57
2018-07-21T20:24:09.159Z,40.20
2018-07-21T20:26:38.909Z,40.07
2018-07-21T20:29:08.212Z,39.35
2018-07-21T20:31:38.014Z,40.38
2018-07-21T20:34:07.384Z,40.21
2018-07-21T20:36:36.673Z,39.94
2018-07-21T20:39:09.374Z,39.86
2018-07-21T20:41:38.992Z,39.65
2018-07-21T20:44:08.387Z,39.88
2018-07-21T20:46:38.262Z,40.11
2018-07-21T20:49:07.627Z,39.83
2018-07-21T20:51:36.943Z,39.96
2018-07-21T20:54:06.305Z,41.01
2018-07-21T20:56:35.551Z,41.12
2018-07-21T20:59:04.932Z,40.31
2018-07-21T21:01:34.281Z,40.90
2018-07-21T21:04:03.611Z,39.95
2018-07-21T21:06:32.979Z,40.01
2018-07-21T21:09:02.412Z,40.53
2018-07-21T21:11:31.791Z,41.18
2018-07-21T21:14:01.127Z,40.42
2018-07-21T21:16:30.500Z,40.43
2018-07-21T21:18:59.807Z,40.20
2018-07-21T21:21:29.111Z,40.10
2018-07-21T21:23:59.414Z,39.99
2018-07-21T21:26:28.750Z,40.35
2018-07-21T21:28:58.124Z,40.86
2018-07-21T21:31:27.891Z,39.83
2018-07-21T21:33:57.352Z,40.99
2018-07-21T21:36:26.728Z,39.89
2018-07-21T21:38:56.053Z,40.97
2018-07-21T21:41:25.380Z,40.27
2018-07-21T21:43:54.695Z,40.18
2018-07-21T21:46:24.007Z,39.44
2018-07-21T21:48:53.467Z,39.59
2018-07-21T21:51:22.848Z,39.74
2018-07-21T21:53:52.496Z,40.55
2018-07-21T21:56:21.792Z,40.34
2018-07-21T21:58:51.158Z,39.49
2018-07-21T22:01:20.481Z,40.37
2018-07-21T22:03:49.930Z,40.54
2018-07-21T22:06:19.240Z,40.66
2018-07-21T22:08:48.574Z,40.61
2018-07-21T22:11:17.866Z,40.29
2018-07-21T22:13:47.211Z,40.44
2018-07-21T22:16:17.013Z,41.37
2018-07-21T22:18:46.303Z,40.86
2018-07-21T22:21:15.591Z,41.55
2018-07-21T22:23:45.002Z,40.67
2018-07-21T22:26:14.290Z,41.02
2018-07-21T22:28:43.613Z,40.55
2018-07-21T22:31:12.995Z,40.78
2018-07-21T22:33:42.305Z,40.74
2018-07-21T22:36:11.710Z,40.80
2018-07-21T22:38:41.755Z,40.14
2018-07-21T22:41:11.086Z,40.00
2018-07-21T22:43:40.601Z,40.73
2018-07-21T22:46:09.963Z,40.73
2018-07-21T22:48:39.263Z,40.16
2018-07-21T22:51:08.602Z,40.17
2018-07-21T22:53:37.957Z,40.38
2018-07-21T22:56:07.297Z,40.54
2018-07-21T22:58:36.707Z,40.09
2018-07-21T23:01:06.335Z,41.04
2018-07-21T23:03:35.644Z,41.49
2018-07-21T23:06:05.064Z,41.39
2018-07-21T23:08:34.448Z,41.16
2018-07-21T23:11:03.708Z,40.15
2018-07-21T23:13:32.979Z,39.78
2018-07-21T23:16:02.369Z,40.30
2018-07-21T23:18:31.676Z,40.01
2018-07-21T23:21:00.938Z,40.04
2018-07-21T23:23:30.540Z,40.42
2018-07-21T23:25:59.893Z,39.40
2018-07-21T23:28:29.225Z,40.51
2018-07-21T23:30:58.599Z,40.24
2018-07-21T23:33:27.907Z,40.52
2018-07-21T23:35:57.290Z,39.45
2018-07-21T23:38:26.964Z,39.68
2018-07-21T23:40:56.296Z,40.43
2018-07-21T23:43:25.576Z,40.35
2018-07-21T23:45:55.176Z,40.06
2018-07-21T23:48:24.455Z,39.46
2018-07-21T23:50:53.755Z,40.20
2018-07-21T23:53:23.090Z,39.92
2018-07-21T23:55:52.433Z,39.52
2018-07-21T23:58:21.802Z,39.41
